sensor_id;sensor_type;location;lat;lon;timestamp;pressure;altitude;pressure_sealevel;temperature;humidity
71857;BME280;63344;46.980;28.882;2023-08-30T00:00:58;99870.88;;;23.49;63.50
71857;BME280;63344;46.980;28.882;2023-08-30T00:03:37;99878.78;;;23.42;64.07
71857;BME280;63344;46.980;28.882;2023-08-30T00:06:16;99872.63;;;23.32;63.94
71857;BME280;63344;46.980;28.882;2023-08-30T00:08:57;99880.09;;;23.30;64.11
71857;BME280;63344;46.980;28.882;2023-08-30T00:11:57;99887.38;;;23.30;64.11
71857;BME280;63344;46.980;28.882;2023-08-30T00:14:36;99893.28;;;23.25;64.23
71857;BME280;63344;46.980;28.882;2023-08-30T00:17:38;99892.41;;;23.24;64.27
71857;BME280;63344;46.980;28.882;2023-08-30T00:20:13;99889.88;;;23.23;64.18
71857;BME280;63344;46.980;28.882;2023-08-30T00:23:17;99890.88;;;23.22;64.57
71857;BME280;63344;46.980;28.882;2023-08-30T00:25:53;99883.38;;;23.16;64.66
71857;BME280;63344;46.980;28.882;2023-08-30T00:28:31;99876.03;;;23.08;65.05
71857;BME280;63344;46.980;28.882;2023-08-30T00:31:20;99882.00;;;23.12;65.37
71857;BME280;63344;46.980;28.882;2023-08-30T00:33:56;99880.31;;;23.11;65.10
71857;BME280;63344;46.980;28.882;2023-08-30T00:36:41;99880.63;;;23.08;64.99
71857;BME280;63344;46.980;28.882;2023-08-30T00:39:15;99880.09;;;23.04;65.37
71857;BME280;63344;46.980;28.882;2023-08-30T00:42:17;99877.28;;;22.96;65.80
71857;BME280;63344;46.980;28.882;2023-08-30T00:45:11;99873.34;;;22.90;65.74
71857;BME280;63344;46.980;28.882;2023-08-30T00:48:07;99883.50;;;22.88;66.27
71857;BME280;63344;46.980;28.882;2023-08-30T00:50:45;99873.63;;;22.79;66.37
71857;BME280;63344;46.980;28.882;2023-08-30T00:57:07;99866.22;;;22.63;67.21
71857;BME280;63344;46.980;28.882;2023-08-30T00:59:55;99874.47;;;22.61;66.83
71857;BME280;63344;46.980;28.882;2023-08-30T01:03:05;99875.03;;;22.65;67.28
71857;BME280;63344;46.980;28.882;2023-08-30T01:05:50;99867.97;;;22.54;66.66
71857;BME280;63344;46.980;28.882;2023-08-30T01:08:25;99880.75;;;22.62;67.03
71857;BME280;63344;46.980;28.882;2023-08-30T01:14:04;99878.66;;;22.56;67.46
71857;BME280;63344;46.980;28.882;2023-08-30T01:16:49;99876.44;;;22.51;67.22
71857;BME280;63344;46.980;28.882;2023-08-30T01:28:44;99876.16;;;22.44;67.93
71857;BME280;63344;46.980;28.882;2023-08-30T01:31:36;99872.25;;;22.39;67.72
71857;BME280;63344;46.980;28.882;2023-08-30T01:34:13;99883.44;;;22.44;67.72
71857;BME280;63344;46.980;28.882;2023-08-30T01:36:50;99879.22;;;22.41;68.07
71857;BME280;63344;46.980;28.882;2023-08-30T01:39:47;99877.34;;;22.42;68.45
71857;BME280;63344;46.980;28.882;2023-08-30T01:42:40;99877.97;;;22.36;68.05
71857;BME280;63344;46.980;28.882;2023-08-30T01:45:45;99881.22;;;22.39;68.51
71857;BME280;63344;46.980;28.882;2023-08-30T01:48:25;99880.25;;;22.31;68.67
71857;BME280;63344;46.980;28.882;2023-08-30T01:51:21;99887.00;;;22.26;68.99
71857;BME280;63344;46.980;28.882;2023-08-30T01:53:57;99886.59;;;22.21;68.78
71857;BME280;63344;46.980;28.882;2023-08-30T01:56:35;99891.28;;;22.19;68.94
71857;BME280;63344;46.980;28.882;2023-08-30T02:02:38;99877.38;;;22.14;69.06
71857;BME280;63344;46.980;28.882;2023-08-30T02:05:14;99895.31;;;22.15;69.35
71857;BME280;63344;46.980;28.882;2023-08-30T02:08:09;99898.00;;;22.15;69.56
71857;BME280;63344;46.980;28.882;2023-08-30T02:10:51;99892.75;;;22.14;69.66
71857;BME280;63344;46.980;28.882;2023-08-30T02:13:31;99886.09;;;22.08;70.00
71857;BME280;63344;46.980;28.882;2023-08-30T02:16:05;99896.63;;;22.11;69.99
71857;BME280;63344;46.980;28.882;2023-08-30T02:18:45;99898.44;;;22.11;69.73
71857;BME280;63344;46.980;28.882;2023-08-30T02:21:19;99888.78;;;22.08;70.38
71857;BME280;63344;46.980;28.882;2023-08-30T02:23:57;99882.78;;;22.14;70.11
71857;BME280;63344;46.980;28.882;2023-08-30T02:26:38;99880.38;;;22.11;69.95
71857;BME280;63344;46.980;28.882;2023-08-30T02:29:30;99884.16;;;22.18;69.92
71857;BME280;63344;46.980;28.882;2023-08-30T02:32:10;99886.19;;;22.16;70.06
71857;BME280;63344;46.980;28.882;2023-08-30T02:35:00;99887.75;;;22.19;71.34
71857;BME280;63344;46.980;28.882;2023-08-30T02:37:48;99885.31;;;22.25;74.78
71857;BME280;63344;46.980;28.882;2023-08-30T02:40:45;99886.91;;;22.36;77.33
71857;BME280;63344;46.980;28.882;2023-08-30T02:43:24;99880.19;;;22.40;77.63
71857;BME280;63344;46.980;28.882;2023-08-30T02:46:13;99875.66;;;22.41;78.20
71857;BME280;63344;46.980;28.882;2023-08-30T02:48:54;99885.16;;;22.45;77.91
71857;BME280;63344;46.980;28.882;2023-08-30T02:51:58;99881.97;;;22.50;77.15
71857;BME280;63344;46.980;28.882;2023-08-30T02:54:37;99878.59;;;22.47;76.43
71857;BME280;63344;46.980;28.882;2023-08-30T02:57:09;99885.25;;;22.53;76.32
71857;BME280;63344;46.980;28.882;2023-08-30T02:59:54;99872.84;;;22.51;76.31
71857;BME280;63344;46.980;28.882;2023-08-30T03:02:33;99885.09;;;22.55;76.69
71857;BME280;63344;46.980;28.882;2023-08-30T03:08:52;99885.53;;;22.50;77.36
71857;BME280;63344;46.980;28.882;2023-08-30T03:11:50;99900.53;;;22.62;77.08
71857;BME280;63344;46.980;28.882;2023-08-30T03:14:35;99900.53;;;22.62;78.14
71857;BME280;63344;46.980;28.882;2023-08-30T03:17:10;99899.84;;;22.60;78.81
71857;BME280;63344;46.980;28.882;2023-08-30T03:20:18;99890.50;;;22.55;79.35
71857;BME280;63344;46.980;28.882;2023-08-30T03:22:59;99900.94;;;22.50;79.65
71857;BME280;63344;46.980;28.882;2023-08-30T03:26:13;99909.59;;;22.53;79.63
71857;BME280;63344;46.980;28.882;2023-08-30T03:28:59;99898.22;;;22.50;79.03
71857;BME280;63344;46.980;28.882;2023-08-30T03:32:14;99911.00;;;22.57;79.03
71857;BME280;63344;46.980;28.882;2023-08-30T03:39:04;99918.16;;;22.66;79.63
71857;BME280;63344;46.980;28.882;2023-08-30T03:42:08;99911.13;;;22.74;79.98
71857;BME280;63344;46.980;28.882;2023-08-30T03:45:19;99911.03;;;22.83;80.52
71857;BME280;63344;46.980;28.882;2023-08-30T03:47:57;99901.91;;;22.84;80.20
71857;BME280;63344;46.980;28.882;2023-08-30T03:54:51;99911.50;;;23.15;79.57
71857;BME280;63344;46.980;28.882;2023-08-30T03:57:57;99920.44;;;23.33;79.11
71857;BME280;63344;46.980;28.882;2023-08-30T04:00:37;99922.53;;;23.48;78.84
71857;BME280;63344;46.980;28.882;2023-08-30T04:03:28;99912.66;;;23.64;78.38
71857;BME280;63344;46.980;28.882;2023-08-30T04:10:44;99927.25;;;24.06;76.96
71857;BME280;63344;46.980;28.882;2023-08-30T04:21:35;99908.06;;;24.50;75.11
71857;BME280;63344;46.980;28.882;2023-08-30T04:24:10;99919.28;;;24.63;74.61
71857;BME280;63344;46.980;28.882;2023-08-30T04:27:22;99936.94;;;24.84;74.34
71857;BME280;63344;46.980;28.882;2023-08-30T04:33:51;99931.34;;;25.18;73.70
71857;BME280;63344;46.980;28.882;2023-08-30T04:36:49;99939.69;;;25.33;73.15
71857;BME280;63344;46.980;28.882;2023-08-30T04:59:45;99942.88;;;26.09;72.43
71857;BME280;63344;46.980;28.882;2023-08-30T05:25:45;99934.84;;;25.60;75.43
71857;BME280;63344;46.980;28.882;2023-08-30T05:28:34;99931.78;;;25.71;75.29
71857;BME280;63344;46.980;28.882;2023-08-30T05:31:48;99948.03;;;25.88;75.59
71857;BME280;63344;46.980;28.882;2023-08-30T05:35:08;99945.47;;;26.02;75.15
71857;BME280;63344;46.980;28.882;2023-08-30T05:38:11;99933.03;;;26.08;74.82
71857;BME280;63344;46.980;28.882;2023-08-30T05:41:07;99938.06;;;26.19;75.35
71857;BME280;63344;46.980;28.882;2023-08-30T05:44:14;99947.84;;;26.37;75.42
71857;BME280;63344;46.980;28.882;2023-08-30T05:47:14;99938.56;;;26.54;75.69
71857;BME280;63344;46.980;28.882;2023-08-30T05:49:58;99929.50;;;26.62;74.78
71857;BME280;63344;46.980;28.882;2023-08-30T05:53:01;99942.34;;;26.76;74.71
71857;BME280;63344;46.980;28.882;2023-08-30T05:59:34;99941.66;;;26.97;73.49
71857;BME280;63344;46.980;28.882;2023-08-30T06:02:40;99936.34;;;27.04;73.49
71857;BME280;63344;46.980;28.882;2023-08-30T06:05:43;99940.81;;;27.20;71.70
71857;BME280;63344;46.980;28.882;2023-08-30T06:17:16;99948.69;;;27.53;69.24
71857;BME280;63344;46.980;28.882;2023-08-30T06:20:28;99947.84;;;27.67;68.66
71857;BME280;63344;46.980;28.882;2023-08-30T06:23:26;99945.00;;;27.75;67.36
71857;BME280;63344;46.980;28.882;2023-08-30T06:26:13;99946.25;;;27.88;67.38
71857;BME280;63344;46.980;28.882;2023-08-30T06:29:09;99944.94;;;27.98;66.77
71857;BME280;63344;46.980;28.882;2023-08-30T06:45:21;99936.19;;;28.18;62.13
71857;BME280;63344;46.980;28.882;2023-08-30T07:24:46;99917.13;;;29.04;54.77
71857;BME280;63344;46.980;28.882;2023-08-30T07:27:49;99902.72;;;28.95;52.80
71857;BME280;63344;46.980;28.882;2023-08-30T07:30:48;99920.09;;;29.09;52.71
71857;BME280;63344;46.980;28.882;2023-08-30T07:33:40;99914.72;;;29.16;53.09
71857;BME280;63344;46.980;28.882;2023-08-30T07:36:31;99908.59;;;29.14;52.74
71857;BME280;63344;46.980;28.882;2023-08-30T07:43:03;99902.53;;;28.97;52.71
71857;BME280;63344;46.980;28.882;2023-08-30T07:46:17;99893.81;;;28.87;53.24
71857;BME280;63344;46.980;28.882;2023-08-30T08:02:00;99885.47;;;28.30;62.24
71857;BME280;63344;46.980;28.882;2023-08-30T08:39:02;99851.56;;;25.59;77.46
71857;BME280;63344;46.980;28.882;2023-08-30T08:42:13;99844.00;;;26.17;78.01
71857;BME280;63344;46.980;28.882;2023-08-30T08:45:06;99828.13;;;27.79;75.20
71857;BME280;63344;46.980;28.882;2023-08-30T08:48:04;99831.63;;;30.07;70.54
71857;BME280;63344;46.980;28.882;2023-08-30T08:55:24;99830.09;;;31.06;53.59
71857;BME280;63344;46.980;28.882;2023-08-30T08:59:18;99830.91;;;30.53;50.71
71857;BME280;63344;46.980;28.882;2023-08-30T09:06:22;99833.88;;;30.65;47.91
71857;BME280;63344;46.980;28.882;2023-08-30T09:09:40;99832.38;;;30.55;48.94
71857;BME280;63344;46.980;28.882;2023-08-30T09:16:41;99807.91;;;31.79;43.15
71857;BME280;63344;46.980;28.882;2023-08-30T09:23:56;99806.03;;;30.74;41.00
71857;BME280;63344;46.980;28.882;2023-08-30T10:28:31;99722.03;;;36.85;24.53
71857;BME280;63344;46.980;28.882;2023-08-30T10:43:57;99744.78;;;34.75;27.07
71857;BME280;63344;46.980;28.882;2023-08-30T10:55:32;99765.03;;;32.73;29.17
71857;BME280;63344;46.980;28.882;2023-08-30T10:58:47;99764.75;;;32.57;29.38
71857;BME280;63344;46.980;28.882;2023-08-30T11:02:20;99766.09;;;32.47;29.59
71857;BME280;63344;46.980;28.882;2023-08-30T11:05:27;99763.88;;;32.31;30.45
71857;BME280;63344;46.980;28.882;2023-08-30T11:08:42;99794.34;;;32.29;29.88
71857;BME280;63344;46.980;28.882;2023-08-30T11:11:44;99806.25;;;32.17;31.07
71857;BME280;63344;46.980;28.882;2023-08-30T11:30:06;99836.69;;;32.22;28.74
71857;BME280;63344;46.980;28.882;2023-08-30T11:32:53;99837.94;;;32.19;28.50
71857;BME280;63344;46.980;28.882;2023-08-30T11:48:01;99876.44;;;31.41;27.69
71857;BME280;63344;46.980;28.882;2023-08-30T11:50:49;99880.91;;;31.28;27.86
71857;BME280;63344;46.980;28.882;2023-08-30T12:02:17;99925.03;;;31.13;27.12
71857;BME280;63344;46.980;28.882;2023-08-30T12:39:37;100024.47;;;25.37;54.13
71857;BME280;63344;46.980;28.882;2023-08-30T13:12:25;100074.53;;;24.51;56.14
71857;BME280;63344;46.980;28.882;2023-08-30T13:15:26;100083.19;;;24.54;56.54
71857;BME280;63344;46.980;28.882;2023-08-30T13:25:40;100078.84;;;24.01;57.88
71857;BME280;63344;46.980;28.882;2023-08-30T14:18:36;100010.94;;;23.04;61.23
71857;BME280;63344;46.980;28.882;2023-08-30T14:25:20;99997.63;;;22.93;60.45
71857;BME280;63344;46.980;28.882;2023-08-30T14:35:11;99968.63;;;23.03;60.22
71857;BME280;63344;46.980;28.882;2023-08-30T14:38:12;99939.97;;;23.01;59.98
71857;BME280;63344;46.980;28.882;2023-08-30T14:41:23;99939.44;;;23.15;59.90
71857;BME280;63344;46.980;28.882;2023-08-30T14:44:49;99914.31;;;23.31;59.16
71857;BME280;63344;46.980;28.882;2023-08-30T14:48:09;99911.50;;;23.41;58.01
71857;BME280;63344;46.980;28.882;2023-08-30T14:51:30;99897.06;;;23.40;58.30
71857;BME280;63344;46.980;28.882;2023-08-30T14:54:45;99870.81;;;23.33;56.99
71857;BME280;63344;46.980;28.882;2023-08-30T14:57:39;99871.94;;;23.30;56.44
71857;BME280;63344;46.980;28.882;2023-08-30T15:04:41;99875.84;;;23.27;56.47
71857;BME280;63344;46.980;28.882;2023-08-30T15:07:34;99867.75;;;23.36;56.36
71857;BME280;63344;46.980;28.882;2023-08-30T15:14:09;99886.16;;;23.58;55.63
71857;BME280;63344;46.980;28.882;2023-08-30T15:16:41;99878.56;;;23.62;54.84
71857;BME280;63344;46.980;28.882;2023-08-30T15:20:22;99900.97;;;23.72;54.09
71857;BME280;63344;46.980;28.882;2023-08-30T15:23:24;99897.25;;;23.73;53.95
71857;BME280;63344;46.980;28.882;2023-08-30T15:26:23;99909.16;;;23.80;53.41
71857;BME280;63344;46.980;28.882;2023-08-30T15:29:47;99900.03;;;23.81;52.97
71857;BME280;63344;46.980;28.882;2023-08-30T15:53:41;99900.28;;;23.70;54.25
71857;BME280;63344;46.980;28.882;2023-08-30T15:56:24;99901.63;;;23.66;54.20
71857;BME280;63344;46.980;28.882;2023-08-30T15:59:37;99899.09;;;23.64;54.45
71857;BME280;63344;46.980;28.882;2023-08-30T16:10:10;99872.28;;;23.61;54.03
71857;BME280;63344;46.980;28.882;2023-08-30T16:13:01;99879.22;;;23.56;53.90
71857;BME280;63344;46.980;28.882;2023-08-30T16:36:07;100005.00;;;23.63;54.08
71857;BME280;63344;46.980;28.882;2023-08-30T16:39:30;100013.13;;;23.63;53.87
71857;BME280;63344;46.980;28.882;2023-08-30T16:42:35;100007.00;;;23.61;53.82
71857;BME280;63344;46.980;28.882;2023-08-30T16:58:00;100029.03;;;23.40;55.50
71857;BME280;63344;46.980;28.882;2023-08-30T17:05:21;100031.16;;;23.28;55.83
71857;BME280;63344;46.980;28.882;2023-08-30T17:08:06;100012.81;;;23.22;56.02
71857;BME280;63344;46.980;28.882;2023-08-30T17:14:45;100004.25;;;23.09;57.06
71857;BME280;63344;46.980;28.882;2023-08-30T17:17:41;100016.22;;;23.06;57.39
71857;BME280;63344;46.980;28.882;2023-08-30T17:20:44;100010.25;;;23.02;57.19
71857;BME280;63344;46.980;28.882;2023-08-30T17:23:53;100009.84;;;22.97;57.41
71857;BME280;63344;46.980;28.882;2023-08-30T17:42:36;100049.22;;;22.46;59.98
71857;BME280;63344;46.980;28.882;2023-08-30T18:03:03;99996.09;;;22.27;60.68
71857;BME280;63344;46.980;28.882;2023-08-30T18:14:51;99987.97;;;22.27;60.72
71857;BME280;63344;46.980;28.882;2023-08-30T18:17:49;99991.81;;;22.24;60.97
71857;BME280;63344;46.980;28.882;2023-08-30T18:21:01;99991.25;;;22.21;61.08
71857;BME280;63344;46.980;28.882;2023-08-30T18:24:21;100003.38;;;22.17;61.69
71857;BME280;63344;46.980;28.882;2023-08-30T18:27:51;100000.38;;;22.10;62.10
71857;BME280;63344;46.980;28.882;2023-08-30T18:46:20;99926.19;;;21.95;62.42
71857;BME280;63344;46.980;28.882;2023-08-30T18:49:48;99931.19;;;21.90;63.33
71857;BME280;63344;46.980;28.882;2023-08-30T19:08:42;99866.03;;;21.55;65.21
71857;BME280;63344;46.980;28.882;2023-08-30T19:11:39;99856.06;;;21.56;64.98
71857;BME280;63344;46.980;28.882;2023-08-30T19:14:20;99854.53;;;21.53;64.57
71857;BME280;63344;46.980;28.882;2023-08-30T19:17:19;99847.97;;;21.56;64.92
71857;BME280;63344;46.980;28.882;2023-08-30T19:20:05;99864.88;;;21.58;64.99
71857;BME280;63344;46.980;28.882;2023-08-30T19:22:43;99873.28;;;21.55;65.43
71857;BME280;63344;46.980;28.882;2023-08-30T19:25:30;99861.22;;;21.49;65.14
71857;BME280;63344;46.980;28.882;2023-08-30T19:28:25;99864.22;;;21.46;65.20
71857;BME280;63344;46.980;28.882;2023-08-30T19:34:55;99863.94;;;21.49;64.74
71857;BME280;63344;46.980;28.882;2023-08-30T19:37:33;99864.06;;;21.47;64.78
71857;BME280;63344;46.980;28.882;2023-08-30T19:40:51;99873.88;;;21.48;64.98
71857;BME280;63344;46.980;28.882;2023-08-30T19:43:53;99863.38;;;21.45;65.04
71857;BME280;63344;46.980;28.882;2023-08-30T19:46:46;99859.38;;;21.50;64.55
71857;BME280;63344;46.980;28.882;2023-08-30T19:49:23;99870.88;;;21.52;64.72
71857;BME280;63344;46.980;28.882;2023-08-30T19:52:29;99886.25;;;21.51;64.16
71857;BME280;63344;46.980;28.882;2023-08-30T19:55:47;99888.97;;;21.51;64.59
71857;BME280;63344;46.980;28.882;2023-08-30T20:06:38;99899.16;;;21.57;64.26
71857;BME280;63344;46.980;28.882;2023-08-30T20:09:45;99889.91;;;21.60;63.71
71857;BME280;63344;46.980;28.882;2023-08-30T20:12:22;99888.91;;;21.61;64.06
71857;BME280;63344;46.980;28.882;2023-08-30T20:15:24;99883.94;;;21.56;63.95
71857;BME280;63344;46.980;28.882;2023-08-30T20:18:39;99896.16;;;21.60;64.34
71857;BME280;63344;46.980;28.882;2023-08-30T20:25:01;99899.88;;;21.59;63.93
71857;BME280;63344;46.980;28.882;2023-08-30T20:27:44;99901.56;;;21.60;63.76
71857;BME280;63344;46.980;28.882;2023-08-30T20:30:51;99896.47;;;21.57;63.62
71857;BME280;63344;46.980;28.882;2023-08-30T20:40:51;99924.63;;;21.55;64.07
71857;BME280;63344;46.980;28.882;2023-08-30T20:43:37;99910.00;;;21.47;63.71
71857;BME280;63344;46.980;28.882;2023-08-30T20:46:13;99924.78;;;21.53;63.91
71857;BME280;63344;46.980;28.882;2023-08-30T20:48:56;99919.91;;;21.57;63.97
71857;BME280;63344;46.980;28.882;2023-08-30T20:56:09;99927.88;;;21.58;64.19
71857;BME280;63344;46.980;28.882;2023-08-30T20:59:11;99949.09;;;21.53;64.71
71857;BME280;63344;46.980;28.882;2023-08-30T21:01:52;99938.72;;;21.48;64.65
71857;BME280;63344;46.980;28.882;2023-08-30T21:04:26;99924.38;;;21.48;64.19
71857;BME280;63344;46.980;28.882;2023-08-30T21:07:19;99934.44;;;21.56;64.04
71857;BME280;63344;46.980;28.882;2023-08-30T21:09:59;99943.72;;;21.53;64.22
71857;BME280;63344;46.980;28.882;2023-08-30T21:16:27;99932.34;;;21.50;64.89
71857;BME280;63344;46.980;28.882;2023-08-30T21:19:37;99934.88;;;21.41;65.52
71857;BME280;63344;46.980;28.882;2023-08-30T21:22:15;99941.28;;;21.40;65.46
71857;BME280;63344;46.980;28.882;2023-08-30T21:24:54;99933.91;;;21.33;65.60
71857;BME280;63344;46.980;28.882;2023-08-30T21:27:54;99932.66;;;21.27;65.93
71857;BME280;63344;46.980;28.882;2023-08-30T21:30:48;99921.88;;;21.17;66.92
71857;BME280;63344;46.980;28.882;2023-08-30T21:33:42;99909.34;;;21.06;66.95
71857;BME280;63344;46.980;28.882;2023-08-30T21:37:09;99933.97;;;21.03;68.68
71857;BME280;63344;46.980;28.882;2023-08-30T21:39:46;99934.56;;;20.87;69.20
71857;BME280;63344;46.980;28.882;2023-08-30T21:43:02;99925.31;;;20.71;69.00
71857;BME280;63344;46.980;28.882;2023-08-30T21:49:28;99937.94;;;20.60;69.52
71857;BME280;63344;46.980;28.882;2023-08-30T21:52:03;99941.88;;;20.56;69.65
71857;BME280;63344;46.980;28.882;2023-08-30T21:54:59;99941.47;;;20.51;70.58
71857;BME280;63344;46.980;28.882;2023-08-30T21:57:33;99947.13;;;20.48;70.62
71857;BME280;63344;46.980;28.882;2023-08-30T22:00:30;99950.25;;;20.43;71.00
71857;BME280;63344;46.980;28.882;2023-08-30T22:03:13;99954.78;;;20.33;71.27
71857;BME280;63344;46.980;28.882;2023-08-30T22:06:31;99964.53;;;20.24;71.26
71857;BME280;63344;46.980;28.882;2023-08-30T22:09:29;99966.53;;;20.22;71.59
71857;BME280;63344;46.980;28.882;2023-08-30T22:12:37;99965.69;;;20.22;71.51
71857;BME280;63344;46.980;28.882;2023-08-30T22:15:41;99964.69;;;20.23;71.51
71857;BME280;63344;46.980;28.882;2023-08-30T22:18:26;99955.59;;;20.14;71.52
71857;BME280;63344;46.980;28.882;2023-08-30T22:20:55;99961.44;;;20.19;71.65
71857;BME280;63344;46.980;28.882;2023-08-30T22:23:38;99960.16;;;20.23;71.34
71857;BME280;63344;46.980;28.882;2023-08-30T22:26:18;99952.63;;;20.17;71.38
71857;BME280;63344;46.980;28.882;2023-08-30T22:29:19;99959.00;;;20.16;71.90
71857;BME280;63344;46.980;28.882;2023-08-30T22:32:08;99960.13;;;20.14;72.15
71857;BME280;63344;46.980;28.882;2023-08-30T22:35:06;99947.78;;;20.11;72.29
71857;BME280;63344;46.980;28.882;2023-08-30T22:37:47;99940.22;;;20.05;72.06
71857;BME280;63344;46.980;28.882;2023-08-30T22:40:52;99956.56;;;20.03;72.42
71857;BME280;63344;46.980;28.882;2023-08-30T22:43:30;99950.72;;;19.98;72.97
71857;BME280;63344;46.980;28.882;2023-08-30T22:46:20;99945.31;;;19.98;72.38
71857;BME280;63344;46.980;28.882;2023-08-30T22:48:58;99937.34;;;19.97;72.50
71857;BME280;63344;46.980;28.882;2023-08-30T22:51:38;99940.06;;;19.97;72.58
71857;BME280;63344;46.980;28.882;2023-08-30T22:54:35;99940.06;;;19.97;73.20
71857;BME280;63344;46.980;28.882;2023-08-30T22:57:43;99951.00;;;19.95;73.37
71857;BME280;63344;46.980;28.882;2023-08-30T23:00:47;99953.69;;;19.95;73.33
71857;BME280;63344;46.980;28.882;2023-08-30T23:03:30;99943.03;;;19.94;73.77
71857;BME280;63344;46.980;28.882;2023-08-30T23:06:03;99952.69;;;19.96;73.36
71857;BME280;63344;46.980;28.882;2023-08-30T23:08:45;99958.94;;;19.97;73.70
71857;BME280;63344;46.980;28.882;2023-08-30T23:11:19;99955.97;;;20.00;73.99
71857;BME280;63344;46.980;28.882;2023-08-30T23:13:53;99944.19;;;19.91;74.25
71857;BME280;63344;46.980;28.882;2023-08-30T23:16:34;99953.09;;;19.92;73.79
71857;BME280;63344;46.980;28.882;2023-08-30T23:19:23;99977.63;;;19.88;73.97
71857;BME280;63344;46.980;28.882;2023-08-30T23:21:59;99968.09;;;19.84;74.46
71857;BME280;63344;46.980;28.882;2023-08-30T23:24:36;99963.66;;;19.74;74.69
71857;BME280;63344;46.980;28.882;2023-08-30T23:27:11;99969.91;;;19.74;74.61
71857;BME280;63344;46.980;28.882;2023-08-30T23:29:45;99960.59;;;19.67;75.03
71857;BME280;63344;46.980;28.882;2023-08-30T23:32:33;99968.34;;;19.72;74.80
71857;BME280;63344;46.980;28.882;2023-08-30T23:35:10;99978.38;;;19.69;75.24
71857;BME280;63344;46.980;28.882;2023-08-30T23:37:47;99974.66;;;19.70;74.95
71857;BME280;63344;46.980;28.882;2023-08-30T23:43:54;99991.13;;;19.67;74.73
71857;BME280;63344;46.980;28.882;2023-08-30T23:46:32;99994.91;;;19.65;74.67
71857;BME280;63344;46.980;28.882;2023-08-30T23:49:08;99980.16;;;19.59;75.30
71857;BME280;63344;46.980;28.882;2023-08-30T23:52:07;99987.38;;;19.59;75.18
71857;BME280;63344;46.980;28.882;2023-08-30T23:54:57;100002.09;;;19.55;75.32
71857;BME280;63344;46.980;28.882;2023-08-30T23:57:34;99991.00;;;19.48;75.43
